»·PEaware :: DAL213 KSBA-KSFO

DAL213 :: KSBA-KSFO

FLIGHT INFORMATION

Flight Status: Arrived
Operator:
Delta Air Lines
More flights by this operator :: More flights under this callsign
Pilot: Nicolas L. (9332)
Aircraft: BOEING 737-800
(B738)
More flights by this aircraft type
Origin: KSBA Santa Barbara Mun
United States
Destination: KSFO San Francisco Intl
United States
More flights between these airports :: More routes between these airports
Route: +GAUCH1 MQO DCT SERFR SERFR3
File this flight plan on PilotEdge
Remarks: Live Streaming on Twitch "DAL213" and YT
Altitude:
(Current/Filed)
28,000ft
Speed:
(Current/Filed)
400kts
Departed: 06-Dec-18 10:17 PM
Arrived: 06-Dec-18 11:02 PM
Distance/Time
Traveled:
228nm/0:45
Distance/Time
To Go:
Arrived

Flight Plot

Page will automatically refresh every two minutes.

Flight plan parsing failed; only flown route is shown


Map Options




Map Legend


Flown Route
Filed Route
Departure Airport
Arrival Airport
Navaid (VOR, NDB)
Fix

Horizontal Profiles

Position Reports

Time Latitude Longitude Heading Altitude Ground
Speed
06-Dec-18 21:58 34.426094 -119.837070 177 19ft 0kts
06-Dec-18 21:59 34.426094 -119.837070 177 19ft 0kts
06-Dec-18 22:00 34.426094 -119.837070 177 19ft 0kts
06-Dec-18 22:01 34.426094 -119.837070 177 19ft 0kts
06-Dec-18 22:02 34.426094 -119.837070 177 19ft 0kts
06-Dec-18 22:03 34.426094 -119.837070 177 19ft 0kts
06-Dec-18 22:04 34.426094 -119.837070 177 19ft 0kts
06-Dec-18 22:05 34.426094 -119.837070 177 19ft 0kts
06-Dec-18 22:06 34.426094 -119.837070 177 19ft 0kts
06-Dec-18 22:07 34.426111 -119.837070 177 19ft 1kts
06-Dec-18 22:08 34.426733 -119.837479 119 19ft 2kts
06-Dec-18 22:09 34.426762 -119.837546 115 19ft 0kts
06-Dec-18 22:10 34.426762 -119.837546 115 19ft 0kts
06-Dec-18 22:11 34.426762 -119.837546 115 19ft 0kts
06-Dec-18 22:12 34.426762 -119.837546 115 19ft 0kts
06-Dec-18 22:13 34.426762 -119.837544 115 19ft 0kts
06-Dec-18 22:14 34.426770 -119.835229 90 19ft 1kts
06-Dec-18 22:15 34.427913 -119.835254 266 19ft 1kts
06-Dec-18 22:16 34.427357 -119.859631 268 568ft 169kts
06-Dec-18 22:17 34.425957 -119.929351 269 4324ft 246kts
06-Dec-18 22:18 34.463478 -120.001226 323 8542ft 280kts
06-Dec-18 22:19 34.529337 -120.062398 322 11721ft 330kts
06-Dec-18 22:20 34.605139 -120.134416 322 14954ft 353kts
06-Dec-18 22:21 34.683553 -120.209485 322 17920ft 365kts
06-Dec-18 22:22 34.764271 -120.286952 323 20429ft 374kts
06-Dec-18 22:23 34.847065 -120.366590 323 22541ft 382kts
06-Dec-18 22:24 34.931168 -120.447740 323 24235ft 389kts
06-Dec-18 22:25 35.016474 -120.530278 323 25753ft 393kts
06-Dec-18 22:26 35.102692 -120.613906 323 27010ft 396kts
06-Dec-18 22:27 35.189127 -120.697992 323 28027ft 399kts
06-Dec-18 22:28 35.280257 -120.781473 330 28062ft 415kts
06-Dec-18 22:29 35.380627 -120.854092 330 28061ft 423kts
06-Dec-18 22:30 35.481847 -120.928347 330 28058ft 425kts
06-Dec-18 22:31 35.583626 -121.003505 330 28071ft 426kts
06-Dec-18 22:32 35.684968 -121.078597 330 28073ft 425kts
06-Dec-18 22:33 35.786047 -121.153708 330 28077ft 424kts
06-Dec-18 22:34 35.887075 -121.229002 330 28084ft 422kts
06-Dec-18 22:35 35.987309 -121.303936 330 28085ft 421kts
06-Dec-18 22:36 36.087499 -121.379455 329 28085ft 421kts
06-Dec-18 22:37 36.185690 -121.456191 329 26824ft 402kts
06-Dec-18 22:38 36.280659 -121.530467 330 24949ft 402kts
06-Dec-18 22:39 36.372202 -121.602280 330 22895ft 375kts
06-Dec-18 22:40 36.456063 -121.668239 330 21122ft 346kts
06-Dec-18 22:41 36.535791 -121.731132 330 19439ft 337kts
06-Dec-18 22:42 36.614626 -121.793506 330 17772ft 332kts
06-Dec-18 22:43 36.692214 -121.855037 329 16033ft 329kts
06-Dec-18 22:44 36.773889 -121.902156 347 14229ft 325kts
06-Dec-18 22:45 36.860776 -121.927280 347 12141ft 317kts
06-Dec-18 22:46 36.946229 -121.951391 347 10081ft 306kts
06-Dec-18 22:47 37.019879 -121.979507 342 9985ft 261kts
06-Dec-18 22:48 37.089844 -122.006872 342 9205ft 270kts
06-Dec-18 22:49 37.161405 -122.034852 343 9076ft 263kts
06-Dec-18 22:50 37.231281 -122.062061 343 8331ft 257kts
06-Dec-18 22:51 37.300763 -122.087583 344 6714ft 258kts
06-Dec-18 22:52 37.367763 -122.112456 343 5542ft 245kts
06-Dec-18 22:53 37.434039 -122.141411 342 3945ft 244kts
06-Dec-18 22:54 37.497698 -122.166625 346 3224ft 223kts
06-Dec-18 22:55 37.544621 -122.194340 305 2283ft 177kts
06-Dec-18 22:56 37.565600 -122.247397 282 1601ft 161kts
06-Dec-18 22:58 37.557841 -122.301015 267 1073ft 135kts
06-Dec-18 22:59 37.565565 -122.348815 292 998ft 138kts
06-Dec-18 23:00 37.587881 -122.385279 335 517ft 132kts
06-Dec-18 23:01 37.619476 -122.372340 27 22ft 58kts
06-Dec-18 23:02 37.621979 -122.373564 297 22ft 23kts
06-Dec-18 23:03 37.620487 -122.378101 227 22ft 10kts
06-Dec-18 23:04 37.618906 -122.380127 196 22ft 9kts
06-Dec-18 23:05 37.618113 -122.380730 256 22ft 0kts
06-Dec-18 23:06 37.618113 -122.380730 256 22ft 0kts

Navigation Log

Ident Type
Flight plan parsing failed, navigation log unavailable